Time;durP1;ratioP1;P1;durP2;ratioP2;P2;SDS_P1;SDS_P2;PMS_P1;PMS_P2;Temp;Humidity;BMP_temperature;BMP_pressure;BME280_temperature;BME280_humidity;BME280_pressure;Samples;Min_cycle;Max_cycle;Signal;HPM_P1;HPM_P2
2022/07/24 00:00:42;;;;;;;1.47;0.90;;;19.90;96.40;;;;;;6094158;23;20454;-75
2022/07/24 00:03:09;;;;;;;1.40;0.90;;;19.90;96.80;;;;;;6094072;23;20447;-76
2022/07/24 00:05:36;;;;;;;1.50;0.93;;;19.90;96.90;;;;;;6093657;23;20419;-76
2022/07/24 00:08:03;;;;;;;1.47;0.90;;;19.90;96.80;;;;;;6102386;23;20449;-75
2022/07/24 00:10:31;;;;;;;1.47;0.90;;;19.80;97.50;;;;;;6094413;23;20430;-74
2022/07/24 00:12:59;;;;;;;1.50;0.90;;;19.80;97.50;;;;;;6101667;23;20591;-76
2022/07/24 00:15:27;;;;;;;1.47;0.90;;;19.80;97.70;;;;;;6093571;23;20450;-76
2022/07/24 00:17:54;;;;;;;1.50;0.90;;;19.70;97.60;;;;;;6100645;23;20453;-76
2022/07/24 00:20:21;;;;;;;1.43;0.90;;;19.70;98.20;;;;;;6094045;23;20433;-76
2022/07/24 00:22:48;;;;;;;1.50;1.00;;;19.70;98.20;;;;;;6102353;23;20456;-76
2022/07/24 00:25:16;;;;;;;1.47;0.90;;;19.60;98.20;;;;;;6093802;23;20426;-76
2022/07/24 00:27:43;;;;;;;1.50;0.90;;;19.60;98.20;;;;;;6101846;23;21028;-77
2022/07/24 00:30:11;;;;;;;1.50;0.90;;;19.60;98.20;;;;;;6093973;23;20427;-76
2022/07/24 00:32:39;;;;;;;1.47;0.90;;;19.60;98.20;;;;;;6100084;23;20533;-75
2022/07/24 00:35:07;;;;;;;1.50;0.90;;;19.60;98.20;;;;;;6094456;23;20450;-75
2022/07/24 00:37:34;;;;;;;1.50;0.90;;;19.60;98.20;;;;;;6099030;23;20845;-76
2022/07/24 00:40:01;;;;;;;1.47;0.90;;;19.60;98.20;;;;;;6095760;23;20445;-75
2022/07/24 00:42:28;;;;;;;1.47;0.90;;;19.60;98.20;;;;;;6094101;23;20423;-75
2022/07/24 00:44:55;;;;;;;1.50;1.00;;;19.60;98.20;;;;;;6093468;23;20517;-76
2022/07/24 00:47:22;;;;;;;1.43;0.90;;;19.60;98.20;;;;;;6092896;23;20783;-76
2022/07/24 00:49:50;;;;;;;1.50;1.00;;;19.50;98.20;;;;;;6093093;23;20426;-75
2022/07/24 00:52:17;;;;;;;1.47;0.90;;;19.50;98.20;;;;;;6095868;23;20449;-76
2022/07/24 00:54:45;;;;;;;1.50;0.90;;;19.40;98.20;;;;;;6097702;23;20949;-75
2022/07/24 00:57:12;;;;;;;2.03;1.50;;;19.40;98.20;;;;;;6095510;23;20449;-76
2022/07/24 00:59:40;;;;;;;1.40;0.90;;;19.40;98.20;;;;;;6099108;23;20423;-76
2022/07/24 01:02:06;;;;;;;1.50;1.00;;;19.40;98.20;;;;;;6093100;23;20737;-76
2022/07/24 01:04:33;;;;;;;1.50;0.90;;;19.40;98.20;;;;;;6093195;23;20447;-76
2022/07/24 01:07:02;;;;;;;1.50;0.90;;;19.40;98.20;;;;;;6092549;23;21028;-75
2022/07/24 01:09:29;;;;;;;1.50;0.90;;;19.40;98.20;;;;;;6102212;23;20976;-76
2022/07/24 01:11:57;;;;;;;1.47;0.90;;;19.40;98.20;;;;;;6092674;23;20505;-75
2022/07/24 01:14:24;;;;;;;1.47;1.00;;;19.40;98.20;;;;;;6092772;23;20443;-75
2022/07/24 01:16:51;;;;;;;1.50;0.90;;;19.40;98.20;;;;;;6091201;23;20457;-76
2022/07/24 01:19:18;;;;;;;1.43;0.90;;;19.40;98.20;;;;;;6103430;23;20433;-76
2022/07/24 01:21:52;;;;;;;1.50;0.90;;;19.40;98.20;;;;;;6089837;23;20449;-75
2022/07/24 01:24:20;;;;;;;1.40;0.90;;;19.40;98.20;;;;;;6103138;23;20533;-76
2022/07/24 01:26:47;;;;;;;1.50;0.90;;;19.40;98.20;;;;;;6093695;23;20403;-76
2022/07/24 01:29:15;;;;;;;1.47;0.90;;;19.30;98.20;;;;;;6087842;23;20422;-75
2022/07/24 01:31:42;;;;;;;1.50;0.90;;;19.30;98.20;;;;;;6086043;23;21034;-75
2022/07/24 01:34:09;;;;;;;1.50;1.00;;;19.30;98.20;;;;;;6103707;23;20485;-75
2022/07/24 01:36:36;;;;;;;1.50;0.97;;;19.30;98.20;;;;;;6086839;23;20461;-75
2022/07/24 01:39:05;;;;;;;1.50;0.90;;;19.30;98.20;;;;;;6106206;23;20454;-75
2022/07/24 01:41:35;;;;;;;1.47;1.00;;;19.30;98.20;;;;;;6090370;23;20456;-77
2022/07/24 01:44:02;;;;;;;1.43;0.90;;;19.30;98.20;;;;;;6107457;23;20917;-74
2022/07/24 01:46:29;;;;;;;1.47;0.90;;;19.30;98.20;;;;;;6093589;23;20545;-74
2022/07/24 01:48:56;;;;;;;1.50;1.00;;;19.30;98.20;;;;;;6107363;23;20505;-74
2022/07/24 01:51:23;;;;;;;1.43;0.97;;;19.20;98.20;;;;;;6085403;23;20460;-74
2022/07/24 01:53:50;;;;;;;1.50;0.90;;;19.20;98.20;;;;;;6108707;23;20447;-74
2022/07/24 01:56:18;;;;;;;1.47;0.90;;;19.20;98.20;;;;;;6093289;23;20446;-74
2022/07/24 01:58:45;;;;;;;1.50;0.90;;;19.20;98.20;;;;;;6092246;23;20433;-74
2022/07/24 02:01:12;;;;;;;1.50;1.00;;;19.20;98.20;;;;;;6092621;23;20434;-75
2022/07/24 02:03:39;;;;;;;1.47;1.00;;;19.10;98.20;;;;;;6092386;23;20446;-74
2022/07/24 02:06:06;;;;;;;1.47;0.90;;;19.10;98.20;;;;;;6082614;23;20777;-74
2022/07/24 02:08:33;;;;;;;1.50;1.10;;;19.10;98.20;;;;;;6111967;23;20430;-74
2022/07/24 02:11:00;;;;;;;1.50;0.90;;;19.10;98.20;;;;;;6092364;23;20422;-73
2022/07/24 02:13:29;;;;;;;1.50;1.00;;;19.10;98.20;;;;;;6092677;23;20479;-74
2022/07/24 02:15:56;;;;;;;1.50;1.00;;;19.10;98.20;;;;;;6080010;23;20446;-75
2022/07/24 02:18:23;;;;;;;1.43;0.90;;;19.10;98.20;;;;;;6114113;23;20422;-74
2022/07/24 02:20:50;;;;;;;1.47;0.90;;;19.10;98.20;;;;;;6079672;23;20423;-74
2022/07/24 02:23:18;;;;;;;1.47;0.90;;;19.10;98.20;;;;;;6114682;23;20464;-75
2022/07/24 02:25:46;;;;;;;1.50;0.90;;;19.00;98.20;;;;;;6092315;23;20493;-74
2022/07/24 02:28:13;;;;;;;1.50;0.93;;;19.00;98.20;;;;;;6077301;23;20501;-74
2022/07/24 02:30:44;;;;;;;1.47;1.00;;;19.00;98.20;;;;;;6092686;23;20487;-74
2022/07/24 02:33:12;;;;;;;1.47;0.90;;;19.00;98.20;;;;;;6076421;23;20435;-74
2022/07/24 02:35:39;;;;;;;1.50;0.90;;;19.00;98.20;;;;;;6092004;23;21012;-74
2022/07/24 02:38:06;;;;;;;1.50;1.00;;;19.00;98.20;;;;;;6100334;23;20522;-75
2022/07/24 02:40:34;;;;;;;1.50;0.93;;;18.90;98.20;;;;;;6093134;23;20531;-76
2022/07/24 02:43:01;;;;;;;1.47;0.90;;;18.90;98.20;;;;;;6092520;23;20522;-74
2022/07/24 02:45:28;;;;;;;1.40;0.90;;;18.90;98.20;;;;;;6092549;23;20924;-77
2022/07/24 02:47:57;;;;;;;1.47;0.90;;;18.90;98.20;;;;;;6102032;23;20536;-75
2022/07/24 02:50:30;;;;;;;1.50;0.90;;;18.90;98.20;;;;;;6093268;23;20552;-75
2022/07/24 02:52:57;;;;;;;1.50;0.90;;;18.80;98.20;;;;;;6100496;23;20449;-76
2022/07/24 02:55:27;;;;;;;1.50;1.00;;;18.80;98.20;;;;;;6092017;23;20447;-76
2022/07/24 02:57:55;;;;;;;1.50;0.90;;;18.80;98.20;;;;;;6093369;23;20453;-76
2022/07/24 03:00:22;;;;;;;1.50;1.00;;;18.80;98.20;;;;;;6092542;23;20509;-76
2022/07/24 03:02:49;;;;;;;1.50;1.00;;;18.80;98.20;;;;;;6100028;23;20449;-76
2022/07/24 03:05:18;;;;;;;1.50;1.00;;;18.80;98.20;;;;;;6092145;23;20423;-77
2022/07/24 03:07:46;;;;;;;1.50;1.00;;;18.80;98.20;;;;;;6101037;23;20548;-76
2022/07/24 03:10:14;;;;;;;1.47;0.90;;;18.80;98.20;;;;;;6093116;23;20809;-76
2022/07/24 03:12:41;;;;;;;1.47;0.97;;;18.70;98.20;;;;;;6092610;23;20447;-77
2022/07/24 03:15:09;;;;;;;1.43;1.00;;;18.70;98.20;;;;;;6092929;23;20422;-75
2022/07/24 03:17:36;;;;;;;1.47;1.00;;;18.70;98.20;;;;;;6091982;23;20477;-77
2022/07/24 03:20:04;;;;;;;1.40;0.90;;;18.70;98.20;;;;;;6093263;23;20454;-76
2022/07/24 03:22:32;;;;;;;1.50;1.00;;;18.70;98.20;;;;;;6098773;23;20456;-77
2022/07/24 03:25:00;;;;;;;1.43;1.00;;;18.70;98.20;;;;;;6095314;23;20510;-76
2022/07/24 03:27:28;;;;;;;1.40;0.90;;;18.70;98.20;;;;;;6098039;23;20770;-76
2022/07/24 03:29:55;;;;;;;1.50;0.90;;;18.70;98.20;;;;;;6095350;23;20993;-76
2022/07/24 03:32:22;;;;;;;1.47;0.90;;;18.70;98.20;;;;;;6096478;23;20540;-76
2022/07/24 03:34:49;;;;;;;1.50;1.13;;;18.70;98.20;;;;;;6096722;23;20526;-76
2022/07/24 03:37:16;;;;;;;1.47;0.90;;;18.70;98.20;;;;;;6096579;23;20452;-76
2022/07/24 03:39:45;;;;;;;1.50;0.90;;;18.60;98.20;;;;;;6099707;23;20454;-77
2022/07/24 03:42:12;;;;;;;1.43;0.90;;;18.60;98.20;;;;;;6094538;23;20478;-76
2022/07/24 03:44:39;;;;;;;1.43;0.90;;;18.60;98.20;;;;;;6109373;23;20438;-76
2022/07/24 03:47:06;;;;;;;1.50;1.00;;;18.60;98.20;;;;;;6099261;23;20450;-76
2022/07/24 03:49:33;;;;;;;1.50;0.90;;;18.60;98.20;;;;;;6101292;23;20450;-75
2022/07/24 03:52:01;;;;;;;1.50;1.00;;;18.60;98.20;;;;;;6093542;23;20423;-75
2022/07/24 03:54:28;;;;;;;1.50;1.00;;;18.60;98.20;;;;;;6094769;23;20949;-76
2022/07/24 03:56:56;;;;;;;1.43;0.90;;;18.60;98.20;;;;;;6094366;23;20446;-77
2022/07/24 03:59:23;;;;;;;1.77;1.57;;;18.60;98.20;;;;;;6093931;23;20996;-76
2022/07/24 04:01:50;;;;;;;1.50;1.00;;;18.60;98.20;;;;;;6093433;23;20426;-76
2022/07/24 04:04:18;;;;;;;1.50;0.90;;;18.60;98.20;;;;;;6090879;23;20442;-77
2022/07/24 04:06:45;;;;;;;1.40;0.90;;;18.60;98.20;;;;;;6090215;23;20453;-76
2022/07/24 04:09:13;;;;;;;1.50;0.90;;;18.60;98.20;;;;;;6114679;23;20758;-77
2022/07/24 04:11:40;;;;;;;1.43;0.90;;;18.60;98.20;;;;;;6089009;23;20853;-76
2022/07/24 04:14:08;;;;;;;1.87;1.37;;;18.60;98.20;;;;;;6116995;23;20795;-75
2022/07/24 04:16:35;;;;;;;1.43;0.90;;;18.60;98.20;;;;;;6089070;23;20803;-76
2022/07/24 04:19:03;;;;;;;1.40;0.90;;;18.60;98.20;;;;;;6107236;23;20423;-75
2022/07/24 04:21:30;;;;;;;1.50;0.90;;;18.60;98.20;;;;;;6097418;23;20473;-75
2022/07/24 04:23:57;;;;;;;1.50;1.10;;;18.70;98.20;;;;;;6129152;23;20453;-76
2022/07/24 04:26:24;;;;;;;1.50;1.00;;;18.70;98.20;;;;;;6094594;23;20502;-75
2022/07/24 04:28:51;;;;;;;1.50;1.00;;;18.70;98.20;;;;;;6095906;23;20423;-75
2022/07/24 04:31:20;;;;;;;1.47;0.90;;;18.80;98.20;;;;;;6086577;23;20445;-75
2022/07/24 04:33:47;;;;;;;1.50;0.90;;;18.80;98.20;;;;;;6121455;23;20490;-75
2022/07/24 04:36:14;;;;;;;1.47;0.90;;;18.80;98.20;;;;;;6085839;23;20521;-75
2022/07/24 04:38:41;;;;;;;1.47;0.90;;;18.80;98.20;;;;;;6112340;23;20445;-74
2022/07/24 04:41:08;;;;;;;1.47;0.90;;;18.90;98.20;;;;;;6095180;23;20423;-76
2022/07/24 04:43:36;;;;;;;1.73;1.30;;;18.90;98.20;;;;;;6094971;23;20438;-74
2022/07/24 04:46:03;;;;;;;1.43;0.90;;;18.90;98.20;;;;;;6083924;23;20419;-75
2022/07/24 04:48:33;;;;;;;1.50;0.90;;;19.00;98.20;;;;;;6115891;23;20881;-75
2022/07/24 04:51:00;;;;;;;1.50;1.00;;;19.00;98.20;;;;;;6097578;23;20948;-75
2022/07/24 04:53:27;;;;;;;1.40;0.90;;;19.10;98.20;;;;;;6097642;23;20442;-75
2022/07/24 04:55:54;;;;;;;1.50;1.00;;;19.10;98.20;;;;;;6084712;23;20453;-76
2022/07/24 04:58:21;;;;;;;1.50;0.90;;;19.10;98.20;;;;;;6118881;23;20430;-76
2022/07/24 05:00:48;;;;;;;1.43;0.90;;;19.10;98.20;;;;;;6105993;23;20953;-75
2022/07/24 05:03:16;;;;;;;1.47;0.90;;;19.20;98.20;;;;;;6095556;23;20533;-75
2022/07/24 05:05:44;;;;;;;1.80;1.33;;;19.30;98.20;;;;;;6094059;23;20454;-73
2022/07/24 05:08:12;;;;;;;1.43;0.90;;;19.30;98.20;;;;;;6079791;23;20996;-75
2022/07/24 05:10:39;;;;;;;1.47;0.90;;;19.50;98.20;;;;;;6104290;23;20415;-75
2022/07/24 05:13:06;;;;;;;1.50;0.90;;;19.70;98.20;;;;;;6103394;23;20449;-76
2022/07/24 05:15:34;;;;;;;1.50;1.00;;;19.80;98.20;;;;;;6094584;23;20423;-74
2022/07/24 05:18:01;;;;;;;1.50;0.90;;;19.90;98.20;;;;;;6094275;23;21111;-75
2022/07/24 05:20:28;;;;;;;1.47;0.90;;;20.10;98.20;;;;;;6094937;23;20422;-75
2022/07/24 05:22:57;;;;;;;1.47;0.90;;;20.20;97.30;;;;;;6094106;23;20430;-75
2022/07/24 05:25:24;;;;;;;1.50;0.90;;;20.40;97.10;;;;;;6104612;23;20465;-75
2022/07/24 05:27:51;;;;;;;1.50;0.90;;;20.50;96.50;;;;;;6104078;23;20453;-74
2022/07/24 05:30:18;;;;;;;1.50;0.90;;;20.60;96.50;;;;;;6095056;23;20428;-75
2022/07/24 05:32:45;;;;;;;1.60;1.43;;;20.60;96.50;;;;;;6102821;23;20807;-75
2022/07/24 05:35:12;;;;;;;1.43;0.90;;;20.70;95.80;;;;;;6094278;23;20423;-75
2022/07/24 05:42:53;;;;;;;1.47;0.90;;;21.20;94.60;;;;;;6038156;23;20461;-73
2022/07/24 05:45:22;;;;;;;1.50;1.10;;;21.40;93.90;;;;;;6079322;23;20435;-74
2022/07/24 05:47:52;;;;;;;1.50;0.90;;;21.50;93.80;;;;;;6080907;23;20482;-75
2022/07/24 05:50:20;;;;;;;1.47;0.90;;;21.60;93.40;;;;;;6071878;23;20412;-75
2022/07/24 05:52:47;;;;;;;1.50;1.10;;;21.70;94.00;;;;;;6071185;23;20863;-75
2022/07/24 05:55:17;;;;;;;1.50;0.90;;;21.90;94.30;;;;;;6062771;23;20845;-74
2022/07/24 05:57:45;;;;;;;1.50;0.90;;;22.10;93.40;;;;;;6072003;23;20459;-74
2022/07/24 06:00:18;;;;;;;1.50;0.90;;;22.20;92.30;;;;;;6065921;23;20930;-75
2022/07/24 06:02:46;;;;;;;1.50;0.90;;;22.30;92.50;;;;;;6070943;23;20460;-74
2022/07/24 06:05:17;;;;;;;1.50;0.90;;;22.50;91.70;;;;;;6077008;23;20427;-74
2022/07/24 06:07:44;;;;;;;1.50;0.90;;;22.60;91.40;;;;;;6073003;23;20427;-76
2022/07/24 06:10:12;;;;;;;1.50;0.90;;;22.80;91.00;;;;;;6067115;23;20441;-75
2022/07/24 06:12:41;;;;;;;1.87;1.67;;;22.90;89.80;;;;;;6062460;23;20757;-75
2022/07/24 06:15:09;;;;;;;1.50;0.87;;;23.00;89.80;;;;;;6077154;23;20425;-75
2022/07/24 06:17:38;;;;;;;1.50;0.90;;;23.20;89.90;;;;;;6073240;23;20462;-75
2022/07/24 06:20:06;;;;;;;1.50;1.00;;;23.40;89.40;;;;;;6065368;23;20938;-75
2022/07/24 06:22:39;;;;;;;2.03;1.57;;;23.60;88.40;;;;;;6074879;23;20526;-75
2022/07/24 06:25:08;;;;;;;1.50;0.87;;;23.80;88.10;;;;;;6070493;23;20450;-75
2022/07/24 06:27:41;;;;;;;1.50;0.90;;;24.00;88.00;;;;;;6079756;23;20751;-75
2022/07/24 06:30:13;;;;;;;1.50;0.90;;;24.10;87.70;;;;;;6069222;23;20422;-75
2022/07/24 06:32:43;;;;;;;3.73;1.73;;;24.40;87.80;;;;;;6066168;23;20423;-75
2022/07/24 06:35:11;;;;;;;1.47;0.90;;;24.60;87.00;;;;;;6069555;23;20423;-75
2022/07/24 06:37:39;;;;;;;1.50;0.90;;;24.70;86.70;;;;;;6076397;23;21110;-74
2022/07/24 06:40:07;;;;;;;1.50;0.90;;;24.90;86.00;;;;;;6072293;23;20510;-74
2022/07/24 06:42:35;;;;;;;1.70;1.10;;;25.10;85.50;;;;;;6078973;23;20424;-74
2022/07/24 06:45:03;;;;;;;1.50;0.90;;;25.30;84.70;;;;;;6078478;23;20793;-74
2022/07/24 06:47:30;;;;;;;1.50;0.90;;;25.50;84.40;;;;;;6075450;23;20453;-74
2022/07/24 06:49:59;;;;;;;1.60;1.30;;;25.50;83.80;;;;;;6077569;23;20511;-75
2022/07/24 06:52:26;;;;;;;1.50;0.90;;;25.60;83.80;;;;;;6071251;23;20444;-74
2022/07/24 06:54:54;;;;;;;1.50;0.90;;;25.70;83.30;;;;;;6072779;23;20423;-75
2022/07/24 06:57:22;;;;;;;1.50;0.80;;;25.80;83.80;;;;;;6074386;23;20525;-74
2022/07/24 06:59:52;;;;;;;1.47;0.90;;;25.90;83.10;;;;;;6073276;23;20427;-75
2022/07/24 07:02:20;;;;;;;1.50;0.90;;;26.10;82.90;;;;;;6073681;23;20462;-74
2022/07/24 07:04:48;;;;;;;1.50;0.90;;;26.30;81.60;;;;;;6085493;23;20416;-75
2022/07/24 07:07:17;;;;;;;1.50;0.90;;;26.20;80.90;;;;;;6080514;23;20487;-75
2022/07/24 07:09:45;;;;;;;1.40;0.90;;;26.40;81.40;;;;;;6069416;23;20455;-75
2022/07/24 07:12:13;;;;;;;1.50;0.90;;;26.60;80.80;;;;;;6073685;23;20460;-75
2022/07/24 07:14:40;;;;;;;1.47;0.83;;;26.80;79.30;;;;;;6083403;23;20477;-75
2022/07/24 07:17:07;;;;;;;1.47;0.90;;;26.80;78.60;;;;;;6070131;23;20506;-74
2022/07/24 07:19:35;;;;;;;1.50;0.80;;;26.90;78.10;;;;;;6076874;23;21136;-74
2022/07/24 07:22:30;;;;;;;1.50;0.80;;;27.00;77.90;;;;;;6069637;23;20514;-76
2022/07/24 07:24:57;;;;;;;1.50;0.80;;;27.10;76.30;;;;;;6086192;23;20438;-75
2022/07/24 07:27:25;;;;;;;1.40;0.80;;;27.10;77.50;;;;;;6069494;23;20427;-74
2022/07/24 07:29:52;;;;;;;1.43;0.80;;;27.30;77.40;;;;;;6070241;23;20455;-74
2022/07/24 07:32:20;;;;;;;1.47;0.80;;;27.50;77.90;;;;;;6070627;23;20477;-74
2022/07/24 07:34:48;;;;;;;1.40;0.87;;;27.70;76.00;;;;;;6073418;23;20423;-76
2022/07/24 07:37:16;;;;;;;1.40;0.80;;;27.90;75.00;;;;;;6066668;23;20454;-74
2022/07/24 07:39:44;;;;;;;1.50;1.00;;;27.80;75.50;;;;;;6069872;23;20433;-75
2022/07/24 07:42:12;;;;;;;1.50;0.90;;;27.90;75.10;;;;;;6065555;23;20454;-75
2022/07/24 07:44:39;;;;;;;1.50;0.90;;;28.00;74.90;;;;;;6067145;23;20458;-74
2022/07/24 07:47:08;;;;;;;1.50;0.80;;;28.20;75.00;;;;;;6071431;23;20449;-74
2022/07/24 07:49:35;;;;;;;1.47;0.80;;;28.50;74.20;;;;;;6083252;23;20829;-74
2022/07/24 07:52:03;;;;;;;1.47;0.80;;;28.70;73.40;;;;;;6066427;23;20529;-74
2022/07/24 07:54:30;;;;;;;1.50;0.80;;;28.90;71.70;;;;;;6074088;23;20580;-74
2022/07/24 07:57:00;;;;;;;1.50;0.80;;;29.10;71.50;;;;;;6063889;23;20446;-75
2022/07/24 07:59:30;;;;;;;1.50;1.00;;;29.30;71.80;;;;;;6085647;23;20427;-74
2022/07/24 08:01:57;;;;;;;1.47;0.80;;;29.50;71.80;;;;;;6066640;23;21102;-74
2022/07/24 08:04:27;;;;;;;1.50;0.80;;;29.60;71.70;;;;;;6078193;23;20521;-74
2022/07/24 08:07:08;;;;;;;;;;;;;;;;;;;;;
2022/07/24 08:09:37;;;;;;;1.50;0.90;;;29.80;70.80;;;;;;6086656;23;20433;-73
2022/07/24 08:12:07;;;;;;;1.47;0.80;;;30.00;70.40;;;;;;6069088;23;20553;-76
2022/07/24 08:14:35;;;;;;;1.47;0.80;;;30.00;70.90;;;;;;6085360;23;20407;-74
2022/07/24 08:17:02;;;;;;;1.50;0.90;;;30.00;70.40;;;;;;6069608;23;20800;-75
2022/07/24 08:19:32;;;;;;;1.47;0.80;;;30.10;72.10;;;;;;6076672;23;20481;-75
2022/07/24 08:22:00;;;;;;;1.50;0.80;;;30.20;70.40;;;;;;6077914;23;20454;-75
2022/07/24 08:24:32;;;;;;;1.50;0.80;;;30.30;70.90;;;;;;6074845;23;20422;-76
2022/07/24 08:27:00;;;;;;;1.43;0.80;;;30.40;69.80;;;;;;6076724;23;20553;-75
2022/07/24 08:29:29;;;;;;;1.47;0.80;;;30.40;70.30;;;;;;6085772;23;20430;-74
2022/07/24 08:31:57;;;;;;;1.40;0.80;;;30.50;69.40;;;;;;6067949;23;20474;-76
2022/07/24 08:34:24;;;;;;;1.43;0.80;;;30.60;71.10;;;;;;6079597;23;20423;-76
2022/07/24 08:36:53;;;;;;;1.50;0.80;;;30.70;69.90;;;;;;6071448;23;20529;-75
2022/07/24 08:39:26;;;;;;;1.43;0.83;;;30.90;70.00;;;;;;6080238;23;20427;-75
2022/07/24 08:41:54;;;;;;;1.43;0.80;;;31.10;69.40;;;;;;6068245;23;20463;-75
2022/07/24 08:44:22;;;;;;;2.07;1.87;;;31.20;69.90;;;;;;6068496;23;20435;-75
2022/07/24 08:46:53;;;;;;;1.43;0.80;;;31.20;69.20;;;;;;6065831;23;20964;-74
2022/07/24 08:49:24;;;;;;;1.47;0.80;;;31.30;67.80;;;;;;6078877;23;20416;-74
2022/07/24 08:51:53;;;;;;;1.43;0.80;;;31.40;68.20;;;;;;6066126;23;20461;-75
2022/07/24 08:54:20;;;;;;;1.50;0.80;;;31.50;67.20;;;;;;6084206;23;20682;-74
2022/07/24 08:56:48;;;;;;;1.40;0.90;;;31.60;68.40;;;;;;6064317;23;20577;-74
2022/07/24 08:59:28;;;;;;;1.50;0.80;;;31.70;67.20;;;;;;6085774;23;20805;-75
2022/07/24 09:01:59;;;;;;;1.43;0.80;;;31.80;66.70;;;;;;6075625;23;20639;-75
2022/07/24 09:04:37;;;;;;;1.90;1.13;;;31.80;67.00;;;;;;6078165;23;20396;-75
2022/07/24 09:07:09;;;;;;;2.13;0.90;;;32.00;66.90;;;;;;6069156;23;20461;-75
2022/07/24 09:09:38;;;;;;;1.50;0.90;;;32.10;66.30;;;;;;6085327;23;20419;-75
2022/07/24 09:12:10;;;;;;;1.50;0.80;;;32.20;66.30;;;;;;6066324;23;20296;-75
2022/07/24 09:14:42;;;;;;;1.43;0.80;;;32.20;67.10;;;;;;6077749;23;20223;-76
2022/07/24 09:17:15;;;;;;;1.47;0.80;;;32.30;65.50;;;;;;6074254;23;20936;-75
2022/07/24 09:19:56;;;;;;;1.43;0.80;;;32.40;66.20;;;;;;6074563;23;20277;-75
2022/07/24 09:22:45;;;;;;;1.50;0.80;;;32.40;64.80;;;;;;6075289;23;20599;-75
2022/07/24 09:25:17;;;;;;;1.40;0.80;;;32.40;65.70;;;;;;6070576;23;20211;-75
2022/07/24 09:27:49;;;;;;;1.47;0.90;;;32.50;67.00;;;;;;6075260;23;20209;-75
2022/07/24 09:30:32;;;;;;;1.47;0.80;;;32.70;66.80;;;;;;6077364;23;20183;-75
2022/07/24 09:33:07;;;;;;;1.43;0.80;;;32.80;65.30;;;;;;6077366;23;20209;-74
2022/07/24 09:35:40;;;;;;;1.43;0.80;;;32.90;64.60;;;;;;6079696;23;20346;-74
2022/07/24 09:38:10;;;;;;;1.43;0.80;;;33.00;64.30;;;;;;6077766;23;20233;-75
2022/07/24 09:40:54;;;;;;;1.47;0.80;;;33.10;64.40;;;;;;6080672;23;20203;-74
2022/07/24 09:43:25;;;;;;;1.47;0.80;;;33.30;65.10;;;;;;6053387;23;20202;-74
2022/07/24 09:45:56;;;;;;;1.50;0.80;;;33.30;64.50;;;;;;6054554;23;20598;-74
2022/07/24 09:48:29;;;;;;;1.50;1.00;;;33.40;62.80;;;;;;6098888;23;20167;-75
2022/07/24 09:50:58;;;;;;;1.50;0.97;;;33.40;62.90;;;;;;6076535;23;20199;-74
2022/07/24 09:53:27;;;;;;;1.42;0.80;;;33.40;63.30;;;;;;6069115;23;20187;-75
2022/07/24 09:56:02;;;;;;;1.47;0.80;;;33.50;63.00;;;;;;6064618;23;20288;-75
2022/07/24 09:58:36;;;;;;;1.50;0.90;;;33.70;63.10;;;;;;6097690;23;20208;-75
2022/07/24 10:01:04;;;;;;;1.45;0.85;;;33.80;64.30;;;;;;6061316;23;20706;-74
2022/07/24 10:03:35;;;;;;;1.45;0.80;;;33.70;63.20;;;;;;6056811;23;20190;-74
2022/07/24 10:06:06;;;;;;;1.40;0.80;;;33.80;63.40;;;;;;6059566;23;20167;-75
2022/07/24 10:08:34;;;;;;;1.48;0.80;;;34.00;64.00;;;;;;6060084;23;20191;-74
2022/07/24 10:11:02;;;;;;;1.52;0.95;;;34.10;61.40;;;;;;6057150;23;20211;-74
2022/07/24 10:13:30;;;;;;;1.45;0.80;;;34.10;61.50;;;;;;6079186;23;20194;-75
2022/07/24 10:16:31;;;;;;;1.40;0.80;;;34.10;61.90;;;;;;6046532;23;20210;-75
2022/07/24 10:19:03;;;;;;;2.00;1.83;;;34.10;62.30;;;;;;6013375;23;20505;-75
2022/07/24 10:21:31;;;;;;;1.50;0.90;;;34.10;62.20;;;;;;5991629;23;20225;-73
2022/07/24 10:24:54;;;;;;;1.45;0.80;;;34.00;61.30;;;;;;6043331;23;20246;-75
2022/07/24 10:27:27;;;;;;;1.48;0.80;;;34.20;61.80;;;;;;6059916;23;20803;-74
2022/07/24 10:29:56;;;;;;;1.42;0.80;;;34.40;60.40;;;;;;6063059;23;20905;-74
2022/07/24 10:32:25;;;;;;;1.42;0.80;;;34.50;61.00;;;;;;6059283;23;20214;-74
2022/07/24 10:35:09;;;;;;;1.40;0.80;;;34.60;60.90;;;;;;6061468;23;20194;-75
2022/07/24 10:37:46;;;;;;;1.42;0.80;;;34.70;60.70;;;;;;6059187;23;20178;-74
2022/07/24 10:40:23;;;;;;;1.45;0.80;;;34.90;60.10;;;;;;6060191;23;20175;-75
2022/07/24 10:43:10;;;;;;;1.48;0.80;;;35.10;59.90;;;;;;6058752;23;20178;-75
2022/07/24 10:45:38;;;;;;;1.45;0.80;;;35.30;58.90;;;;;;6060686;23;20226;-74
2022/07/24 10:48:29;;;;;;;1.50;1.00;;;35.40;59.40;;;;;;6070943;23;20210;-76
2022/07/24 10:51:11;;;;;;;1.42;0.80;;;35.50;59.90;;;;;;6046788;23;20599;-73
2022/07/24 10:53:50;;;;;;;1.40;0.80;;;35.60;58.70;;;;;;6078021;23;20167;-75
2022/07/24 10:56:23;;;;;;;1.42;0.80;;;35.60;58.10;;;;;;6049608;23;20606;-75
2022/07/24 10:58:57;;;;;;;1.45;0.80;;;35.60;59.30;;;;;;6074590;23;20183;-75
2022/07/24 11:01:34;;;;;;;1.40;0.80;;;35.50;58.90;;;;;;6055155;23;20202;-75
2022/07/24 11:04:02;;;;;;;1.50;0.90;;;35.50;59.30;;;;;;6059044;23;20186;-75
2022/07/24 11:06:45;;;;;;;1.40;0.80;;;35.60;58.70;;;;;;6052583;23;20309;-75
2022/07/24 11:09:13;;;;;;;1.40;0.80;;;35.60;59.00;;;;;;6070363;23;20194;-74
2022/07/24 11:12:06;;;;;;;1.40;0.80;;;35.70;58.70;;;;;;6053853;23;20273;-75
2022/07/24 11:14:49;;;;;;;1.83;1.25;;;35.90;57.90;;;;;;6066949;23;20189;-75
2022/07/24 11:17:40;;;;;;;1.48;0.90;;;36.00;58.50;;;;;;6060866;23;20223;-74
2022/07/24 11:20:09;;;;;;;1.40;0.80;;;36.10;57.80;;;;;;6062367;23;20187;-74
2022/07/24 11:22:43;;;;;;;1.40;0.80;;;36.00;57.10;;;;;;6090367;23;20221;-74
2022/07/24 11:25:14;;;;;;;1.50;1.00;;;35.90;58.90;;;;;;6077076;23;20181;-75
2022/07/24 11:27:47;;;;;;;1.40;0.80;;;35.90;57.50;;;;;;6067038;23;20214;-74
2022/07/24 11:30:16;;;;;;;1.40;0.80;;;35.90;58.50;;;;;;6061883;23;20189;-75
2022/07/24 11:32:44;;;;;;;1.40;0.80;;;36.00;58.70;;;;;;6066701;23;20281;-76
2022/07/24 11:35:12;;;;;;;1.40;0.80;;;36.00;58.30;;;;;;6061909;23;20290;-75
2022/07/24 11:37:43;;;;;;;1.40;0.80;;;36.10;58.80;;;;;;6062623;23;20842;-75
2022/07/24 11:40:37;;;;;;;1.40;0.80;;;36.20;58.60;;;;;;6068506;23;20171;-76
2022/07/24 11:43:08;;;;;;;1.40;0.80;;;36.50;56.20;;;;;;6053131;23;20187;-76
2022/07/24 11:45:36;;;;;;;1.40;0.80;;;36.60;56.30;;;;;;6062997;23;20173;-74
2022/07/24 11:48:04;;;;;;;1.40;0.80;;;36.70;56.40;;;;;;6070907;23;20240;-75
2022/07/24 11:50:34;;;;;;;1.40;0.80;;;36.80;56.80;;;;;;6062696;23;20202;-75
2022/07/24 11:53:10;;;;;;;1.40;0.80;;;36.80;56.10;;;;;;6075356;23;20216;-76
2022/07/24 11:55:52;;;;;;;1.98;1.17;;;36.70;57.50;;;;;;6072238;23;20268;-76
2022/07/24 11:58:23;;;;;;;1.40;0.80;;;36.80;56.50;;;;;;6054610;23;20194;-77
2022/07/24 12:00:50;;;;;;;2.42;2.22;;;36.90;56.10;;;;;;6064806;23;20237;-75
2022/07/24 12:03:17;;;;;;;1.40;0.80;;;37.00;54.70;;;;;;6059953;23;20189;-75
2022/07/24 12:05:45;;;;;;;1.40;0.80;;;36.80;55.30;;;;;;6080355;23;20179;-74
2022/07/24 12:08:26;;;;;;;1.40;0.80;;;36.80;55.40;;;;;;6055638;23;20262;-76
2022/07/24 12:10:56;;;;;;;1.50;0.90;;;36.90;54.90;;;;;;6068686;23;20213;-75
2022/07/24 12:13:24;;;;;;;1.38;0.80;;;37.10;54.40;;;;;;6076324;23;20190;-77
2022/07/24 12:15:51;;;;;;;1.40;0.80;;;37.20;56.10;;;;;;6076236;23;20178;-75
2022/07/24 12:18:19;;;;;;;1.40;0.80;;;37.20;55.30;;;;;;6065936;23;20492;-77
2022/07/24 12:20:47;;;;;;;1.40;0.80;;;37.40;55.50;;;;;;6074510;23;20202;-75
2022/07/24 12:23:18;;;;;;;1.40;0.80;;;37.50;54.90;;;;;;6052423;23;20233;-76
2022/07/24 12:25:47;;;;;;;1.40;0.80;;;37.60;54.40;;;;;;6073786;23;20197;-77
2022/07/24 12:28:17;;;;;;;1.40;0.80;;;37.50;54.40;;;;;;6079517;23;20230;-74
2022/07/24 12:30:48;;;;;;;1.40;0.90;;;37.50;54.80;;;;;;6066720;23;20209;-77
2022/07/24 12:33:21;;;;;;;1.40;0.80;;;37.50;54.20;;;;;;6049893;23;20198;-76
2022/07/24 12:35:58;;;;;;;1.40;0.80;;;37.50;53.90;;;;;;6062223;23;20684;-77
2022/07/24 12:38:28;;;;;;;1.40;0.80;;;37.40;54.30;;;;;;6086045;23;20887;-75
2022/07/24 12:41:05;;;;;;;1.35;0.80;;;37.50;53.90;;;;;;6054469;23;20274;-76
2022/07/24 12:43:33;;;;;;;1.55;1.13;;;37.60;54.60;;;;;;6096519;23;20190;-76
2022/07/24 12:46:08;;;;;;;1.40;0.80;;;37.50;54.70;;;;;;6063749;23;20654;-76
2022/07/24 12:48:36;;;;;;;1.38;0.80;;;37.40;55.10;;;;;;6093806;23;20198;-76
2022/07/24 12:51:09;;;;;;;1.38;0.80;;;37.40;54.70;;;;;;6066439;23;20209;-76
2022/07/24 12:53:38;;;;;;;1.88;1.70;;;37.30;55.00;;;;;;6066356;23;20202;-77
2022/07/24 12:56:11;;;;;;;1.40;0.80;;;37.20;56.20;;;;;;6055674;23;20206;-78
2022/07/24 12:58:59;;;;;;;1.40;0.80;;;37.20;56.00;;;;;;6096954;23;20203;-75
2022/07/24 13:01:28;;;;;;;1.40;0.80;;;37.10;56.50;;;;;;6059538;23;20237;-76
2022/07/24 13:03:59;;;;;;;1.40;0.90;;;37.00;55.70;;;;;;6090282;23;20612;-77
2022/07/24 13:06:35;;;;;;;1.40;0.80;;;37.00;55.50;;;;;;6058766;23;20210;-76